sensor_id;sensor_type;location;lat;lon;timestamp;temperature;humidity
13794;DHT22;31160;49.500;7.772;2023-02-01T00:00:29;5.60;99.90
13794;DHT22;31160;49.500;7.772;2023-02-01T00:02:56;5.50;99.90
13794;DHT22;31160;49.500;7.772;2023-02-01T00:05:22;5.50;99.90
13794;DHT22;31160;49.500;7.772;2023-02-01T00:07:49;5.50;99.90
13794;DHT22;31160;49.500;7.772;2023-02-01T00:10:16;5.60;99.90
13794;DHT22;31160;49.500;7.772;2023-02-01T00:12:44;5.70;99.90
13794;DHT22;31160;49.500;7.772;2023-02-01T00:15:11;5.70;99.90
13794;DHT22;31160;49.500;7.772;2023-02-01T00:17:37;5.50;99.90
13794;DHT22;31160;49.500;7.772;2023-02-01T00:20:05;5.40;99.90
13794;DHT22;31160;49.500;7.772;2023-02-01T00:22:32;5.50;99.90
13794;DHT22;31160;49.500;7.772;2023-02-01T00:24:58;5.70;99.90
13794;DHT22;31160;49.500;7.772;2023-02-01T00:27:25;5.60;99.90
13794;DHT22;31160;49.500;7.772;2023-02-01T00:29:54;5.60;99.90
13794;DHT22;31160;49.500;7.772;2023-02-01T00:32:21;5.50;99.90
13794;DHT22;31160;49.500;7.772;2023-02-01T00:34:48;5.50;99.90
13794;DHT22;31160;49.500;7.772;2023-02-01T00:37:14;5.50;99.90
13794;DHT22;31160;49.500;7.772;2023-02-01T00:39:41;5.50;99.90
13794;DHT22;31160;49.500;7.772;2023-02-01T00:42:08;5.50;99.90
13794;DHT22;31160;49.500;7.772;2023-02-01T00:44:35;5.50;99.90
13794;DHT22;31160;49.500;7.772;2023-02-01T00:47:02;5.60;99.90
13794;DHT22;31160;49.500;7.772;2023-02-01T00:49:29;5.70;99.90
13794;DHT22;31160;49.500;7.772;2023-02-01T00:51:55;5.60;99.90
13794;DHT22;31160;49.500;7.772;2023-02-01T00:54:22;5.70;99.90
13794;DHT22;31160;49.500;7.772;2023-02-01T00:56:49;5.70;99.90
13794;DHT22;31160;49.500;7.772;2023-02-01T00:59:17;5.60;99.90
13794;DHT22;31160;49.500;7.772;2023-02-01T01:01:44;5.70;99.90
13794;DHT22;31160;49.500;7.772;2023-02-01T01:04:11;5.70;99.90
13794;DHT22;31160;49.500;7.772;2023-02-01T01:06:38;5.70;99.90
13794;DHT22;31160;49.500;7.772;2023-02-01T01:09:06;5.60;99.90
13794;DHT22;31160;49.500;7.772;2023-02-01T01:11:37;5.50;99.90
13794;DHT22;31160;49.500;7.772;2023-02-01T01:14:06;5.60;99.90
13794;DHT22;31160;49.500;7.772;2023-02-01T01:16:34;5.60;99.90
13794;DHT22;31160;49.500;7.772;2023-02-01T01:19:02;5.60;99.90
13794;DHT22;31160;49.500;7.772;2023-02-01T01:21:29;5.50;99.90
13794;DHT22;31160;49.500;7.772;2023-02-01T01:23:56;5.60;99.90
13794;DHT22;31160;49.500;7.772;2023-02-01T01:26:25;5.60;99.90
13794;DHT22;31160;49.500;7.772;2023-02-01T01:28:53;5.60;99.90
13794;DHT22;31160;49.500;7.772;2023-02-01T01:31:20;5.60;99.90
13794;DHT22;31160;49.500;7.772;2023-02-01T01:33:53;5.50;99.90
13794;DHT22;31160;49.500;7.772;2023-02-01T01:36:20;5.60;99.90
13794;DHT22;31160;49.500;7.772;2023-02-01T01:38:47;5.50;99.90
13794;DHT22;31160;49.500;7.772;2023-02-01T01:41:17;5.50;99.90
13794;DHT22;31160;49.500;7.772;2023-02-01T01:43:59;5.50;99.90
13794;DHT22;31160;49.500;7.772;2023-02-01T01:46:29;5.50;99.90
13794;DHT22;31160;49.500;7.772;2023-02-01T01:49:07;5.60;99.90
13794;DHT22;31160;49.500;7.772;2023-02-01T01:51:39;5.60;99.90
13794;DHT22;31160;49.500;7.772;2023-02-01T01:54:12;5.50;99.90
13794;DHT22;31160;49.500;7.772;2023-02-01T01:56:40;5.50;99.90
13794;DHT22;31160;49.500;7.772;2023-02-01T01:59:08;5.60;99.90
13794;DHT22;31160;49.500;7.772;2023-02-01T02:01:36;5.50;99.90
13794;DHT22;31160;49.500;7.772;2023-02-01T02:04:03;5.50;99.90
13794;DHT22;31160;49.500;7.772;2023-02-01T02:06:42;5.40;99.90
13794;DHT22;31160;49.500;7.772;2023-02-01T02:09:15;5.50;99.90
13794;DHT22;31160;49.500;7.772;2023-02-01T02:11:42;5.40;99.90
13794;DHT22;31160;49.500;7.772;2023-02-01T02:14:11;5.40;99.90
13794;DHT22;31160;49.500;7.772;2023-02-01T02:23:03;5.50;99.90
13794;DHT22;31160;49.500;7.772;2023-02-01T02:36:30;5.70;99.90
13794;DHT22;31160;49.500;7.772;2023-02-01T02:39:34;5.60;99.90
13794;DHT22;31160;49.500;7.772;2023-02-01T02:42:23;5.70;99.90
13794;DHT22;31160;49.500;7.772;2023-02-01T02:45:17;5.70;99.90
13794;DHT22;31160;49.500;7.772;2023-02-01T02:48:19;5.60;99.90
13794;DHT22;31160;49.500;7.772;2023-02-01T02:50:58;5.50;99.90
13794;DHT22;31160;49.500;7.772;2023-02-01T02:54:06;5.50;99.90
13794;DHT22;31160;49.500;7.772;2023-02-01T02:56:53;5.70;99.90
13794;DHT22;31160;49.500;7.772;2023-02-01T02:59:40;5.70;99.90
13794;DHT22;31160;49.500;7.772;2023-02-01T03:02:28;5.60;99.90
13794;DHT22;31160;49.500;7.772;2023-02-01T03:05:14;5.70;99.90
13794;DHT22;31160;49.500;7.772;2023-02-01T03:13:38;5.50;99.90
13794;DHT22;31160;49.500;7.772;2023-02-01T03:16:11;5.60;99.90
13794;DHT22;31160;49.500;7.772;2023-02-01T03:18:52;5.50;99.90
13794;DHT22;31160;49.500;7.772;2023-02-01T03:21:43;5.60;99.90
13794;DHT22;31160;49.500;7.772;2023-02-01T03:30:10;5.50;99.90
13794;DHT22;31160;49.500;7.772;2023-02-01T03:32:40;5.60;99.90
13794;DHT22;31160;49.500;7.772;2023-02-01T03:35:57;5.60;99.90
13794;DHT22;31160;49.500;7.772;2023-02-01T03:41:18;5.70;99.90
13794;DHT22;31160;49.500;7.772;2023-02-01T03:46:24;5.80;99.90
13794;DHT22;31160;49.500;7.772;2023-02-01T03:48:53;5.70;99.90
13794;DHT22;31160;49.500;7.772;2023-02-01T03:51:21;5.60;99.90
13794;DHT22;31160;49.500;7.772;2023-02-01T03:53:50;5.70;99.90
13794;DHT22;31160;49.500;7.772;2023-02-01T03:56:19;5.80;99.90
13794;DHT22;31160;49.500;7.772;2023-02-01T03:58:48;5.80;99.90
13794;DHT22;31160;49.500;7.772;2023-02-01T04:01:29;5.70;99.90
13794;DHT22;31160;49.500;7.772;2023-02-01T04:03:57;5.60;99.90
13794;DHT22;31160;49.500;7.772;2023-02-01T04:06:25;5.70;99.90
13794;DHT22;31160;49.500;7.772;2023-02-01T04:08:54;5.70;99.90
13794;DHT22;31160;49.500;7.772;2023-02-01T04:11:20;5.70;99.90
13794;DHT22;31160;49.500;7.772;2023-02-01T04:13:47;5.70;99.90
13794;DHT22;31160;49.500;7.772;2023-02-01T04:16:14;5.70;99.90
13794;DHT22;31160;49.500;7.772;2023-02-01T04:18:40;5.90;99.90
13794;DHT22;31160;49.500;7.772;2023-02-01T04:21:07;5.90;99.90
13794;DHT22;31160;49.500;7.772;2023-02-01T04:23:34;5.80;99.90
13794;DHT22;31160;49.500;7.772;2023-02-01T04:26:04;5.80;99.90
13794;DHT22;31160;49.500;7.772;2023-02-01T04:28:31;5.90;99.90
13794;DHT22;31160;49.500;7.772;2023-02-01T04:30:58;5.80;99.90
13794;DHT22;31160;49.500;7.772;2023-02-01T04:33:25;5.90;99.90
13794;DHT22;31160;49.500;7.772;2023-02-01T04:35:52;6.00;99.90
13794;DHT22;31160;49.500;7.772;2023-02-01T04:38:18;5.70;99.90
13794;DHT22;31160;49.500;7.772;2023-02-01T04:40:47;5.70;99.90
13794;DHT22;31160;49.500;7.772;2023-02-01T04:43:15;5.70;99.90
13794;DHT22;31160;49.500;7.772;2023-02-01T04:45:47;5.70;99.90
13794;DHT22;31160;49.500;7.772;2023-02-01T04:48:16;5.80;99.90
13794;DHT22;31160;49.500;7.772;2023-02-01T04:50:44;5.80;99.90
13794;DHT22;31160;49.500;7.772;2023-02-01T04:53:14;5.70;99.90
13794;DHT22;31160;49.500;7.772;2023-02-01T04:55:42;5.70;99.90
13794;DHT22;31160;49.500;7.772;2023-02-01T04:58:09;5.60;99.90
13794;DHT22;31160;49.500;7.772;2023-02-01T05:00:37;5.60;99.90
13794;DHT22;31160;49.500;7.772;2023-02-01T05:03:04;5.50;99.90
13794;DHT22;31160;49.500;7.772;2023-02-01T05:05:30;5.50;99.90
13794;DHT22;31160;49.500;7.772;2023-02-01T05:07:58;5.50;99.90
13794;DHT22;31160;49.500;7.772;2023-02-01T05:10:25;5.40;99.90
13794;DHT22;31160;49.500;7.772;2023-02-01T05:12:51;5.60;99.90
13794;DHT22;31160;49.500;7.772;2023-02-01T05:15:36;5.60;99.90
13794;DHT22;31160;49.500;7.772;2023-02-01T05:18:03;5.50;99.90
13794;DHT22;31160;49.500;7.772;2023-02-01T05:20:30;5.60;99.90
13794;DHT22;31160;49.500;7.772;2023-02-01T05:22:57;5.40;99.90
13794;DHT22;31160;49.500;7.772;2023-02-01T05:25:23;5.40;99.90
13794;DHT22;31160;49.500;7.772;2023-02-01T05:27:50;5.40;99.90
13794;DHT22;31160;49.500;7.772;2023-02-01T05:30:17;5.50;99.90
13794;DHT22;31160;49.500;7.772;2023-02-01T05:32:44;5.40;99.90
13794;DHT22;31160;49.500;7.772;2023-02-01T05:35:10;5.40;99.90
13794;DHT22;31160;49.500;7.772;2023-02-01T05:37:37;5.30;99.90
13794;DHT22;31160;49.500;7.772;2023-02-01T05:40:04;5.40;99.90
13794;DHT22;31160;49.500;7.772;2023-02-01T05:42:31;5.50;99.90
13794;DHT22;31160;49.500;7.772;2023-02-01T05:44:58;5.50;99.90
13794;DHT22;31160;49.500;7.772;2023-02-01T05:47:24;5.30;99.90
13794;DHT22;31160;49.500;7.772;2023-02-01T05:49:51;5.40;99.90
13794;DHT22;31160;49.500;7.772;2023-02-01T05:52:18;5.50;99.90
13794;DHT22;31160;49.500;7.772;2023-02-01T05:54:46;5.50;99.90
13794;DHT22;31160;49.500;7.772;2023-02-01T05:57:13;5.60;99.90
13794;DHT22;31160;49.500;7.772;2023-02-01T05:59:40;5.50;99.90
13794;DHT22;31160;49.500;7.772;2023-02-01T06:02:08;5.50;99.90
13794;DHT22;31160;49.500;7.772;2023-02-01T06:04:36;5.40;99.90
13794;DHT22;31160;49.500;7.772;2023-02-01T06:07:03;5.40;99.90
13794;DHT22;31160;49.500;7.772;2023-02-01T06:09:29;5.40;99.90
13794;DHT22;31160;49.500;7.772;2023-02-01T06:11:56;5.40;99.90
13794;DHT22;31160;49.500;7.772;2023-02-01T06:14:24;5.60;99.90
13794;DHT22;31160;49.500;7.772;2023-02-01T06:16:50;5.60;99.90
13794;DHT22;31160;49.500;7.772;2023-02-01T06:19:17;5.70;99.90
13794;DHT22;31160;49.500;7.772;2023-02-01T06:21:44;5.60;99.90
13794;DHT22;31160;49.500;7.772;2023-02-01T06:24:11;5.50;99.90
13794;DHT22;31160;49.500;7.772;2023-02-01T06:26:38;5.50;99.90
13794;DHT22;31160;49.500;7.772;2023-02-01T06:29:07;5.50;99.90
13794;DHT22;31160;49.500;7.772;2023-02-01T06:31:33;5.40;99.90
13794;DHT22;31160;49.500;7.772;2023-02-01T06:34:00;5.40;99.90
13794;DHT22;31160;49.500;7.772;2023-02-01T06:36:27;5.50;99.90
13794;DHT22;31160;49.500;7.772;2023-02-01T06:38:55;5.40;99.90
13794;DHT22;31160;49.500;7.772;2023-02-01T06:41:23;5.40;99.90
13794;DHT22;31160;49.500;7.772;2023-02-01T06:43:50;5.40;99.90
13794;DHT22;31160;49.500;7.772;2023-02-01T06:46:17;5.20;99.90
13794;DHT22;31160;49.500;7.772;2023-02-01T06:48:44;5.20;99.90
13794;DHT22;31160;49.500;7.772;2023-02-01T06:51:24;5.10;99.90
13794;DHT22;31160;49.500;7.772;2023-02-01T06:53:52;5.10;99.90
13794;DHT22;31160;49.500;7.772;2023-02-01T06:56:19;5.10;99.90
13794;DHT22;31160;49.500;7.772;2023-02-01T06:58:46;5.10;99.90
13794;DHT22;31160;49.500;7.772;2023-02-01T07:01:13;5.10;99.90
13794;DHT22;31160;49.500;7.772;2023-02-01T07:03:40;5.10;99.90
13794;DHT22;31160;49.500;7.772;2023-02-01T07:06:08;5.20;99.90
13794;DHT22;31160;49.500;7.772;2023-02-01T07:08:36;5.10;99.90
13794;DHT22;31160;49.500;7.772;2023-02-01T07:11:05;5.00;99.90
13794;DHT22;31160;49.500;7.772;2023-02-01T07:13:32;5.10;99.90
13794;DHT22;31160;49.500;7.772;2023-02-01T07:16:04;5.00;99.90
13794;DHT22;31160;49.500;7.772;2023-02-01T07:18:32;5.00;99.90
13794;DHT22;31160;49.500;7.772;2023-02-01T07:20:59;5.10;99.90
13794;DHT22;31160;49.500;7.772;2023-02-01T07:23:26;4.90;99.90
13794;DHT22;31160;49.500;7.772;2023-02-01T07:25:57;5.00;99.90
13794;DHT22;31160;49.500;7.772;2023-02-01T07:28:25;5.00;99.90
13794;DHT22;31160;49.500;7.772;2023-02-01T07:30:52;5.10;99.90
13794;DHT22;31160;49.500;7.772;2023-02-01T07:33:23;5.30;99.90
13794;DHT22;31160;49.500;7.772;2023-02-01T07:35:53;5.30;99.90
13794;DHT22;31160;49.500;7.772;2023-02-01T07:38:20;5.20;99.90
13794;DHT22;31160;49.500;7.772;2023-02-01T07:40:48;5.20;99.90
13794;DHT22;31160;49.500;7.772;2023-02-01T07:43:15;5.20;99.90
13794;DHT22;31160;49.500;7.772;2023-02-01T07:45:41;5.30;99.90
13794;DHT22;31160;49.500;7.772;2023-02-01T07:48:08;5.40;99.90
13794;DHT22;31160;49.500;7.772;2023-02-01T07:50:35;5.40;99.90
13794;DHT22;31160;49.500;7.772;2023-02-01T07:53:01;5.40;99.90
13794;DHT22;31160;49.500;7.772;2023-02-01T07:55:28;5.40;99.90
13794;DHT22;31160;49.500;7.772;2023-02-01T07:57:58;5.30;99.90
13794;DHT22;31160;49.500;7.772;2023-02-01T08:00:26;5.50;99.90
13794;DHT22;31160;49.500;7.772;2023-02-01T08:03:11;5.60;99.90
13794;DHT22;31160;49.500;7.772;2023-02-01T08:05:38;5.50;99.90
13794;DHT22;31160;49.500;7.772;2023-02-01T08:08:06;5.50;99.90
13794;DHT22;31160;49.500;7.772;2023-02-01T08:10:32;5.50;99.90
13794;DHT22;31160;49.500;7.772;2023-02-01T08:13:02;5.60;99.90
13794;DHT22;31160;49.500;7.772;2023-02-01T08:15:29;5.50;99.90
13794;DHT22;31160;49.500;7.772;2023-02-01T08:17:56;5.60;99.90
13794;DHT22;31160;49.500;7.772;2023-02-01T08:20:24;5.60;99.90
13794;DHT22;31160;49.500;7.772;2023-02-01T08:22:53;5.50;99.90
13794;DHT22;31160;49.500;7.772;2023-02-01T08:25:20;5.50;99.90
13794;DHT22;31160;49.500;7.772;2023-02-01T08:27:47;5.40;99.90
13794;DHT22;31160;49.500;7.772;2023-02-01T08:30:15;5.50;99.90
13794;DHT22;31160;49.500;7.772;2023-02-01T08:32:42;5.70;99.90
13794;DHT22;31160;49.500;7.772;2023-02-01T08:35:09;5.80;99.90
13794;DHT22;31160;49.500;7.772;2023-02-01T08:37:35;6.00;99.90
13794;DHT22;31160;49.500;7.772;2023-02-01T08:40:04;6.10;99.90
13794;DHT22;31160;49.500;7.772;2023-02-01T08:42:31;6.30;99.90
13794;DHT22;31160;49.500;7.772;2023-02-01T08:45:18;6.40;99.90
13794;DHT22;31160;49.500;7.772;2023-02-01T08:47:48;6.70;99.90
13794;DHT22;31160;49.500;7.772;2023-02-01T08:50:15;6.80;99.90
13794;DHT22;31160;49.500;7.772;2023-02-01T08:52:42;7.00;99.90
13794;DHT22;31160;49.500;7.772;2023-02-01T08:55:09;7.10;99.90
13794;DHT22;31160;49.500;7.772;2023-02-01T08:57:36;7.10;99.90
13794;DHT22;31160;49.500;7.772;2023-02-01T09:00:04;7.00;99.90
13794;DHT22;31160;49.500;7.772;2023-02-01T09:02:31;7.10;99.90
13794;DHT22;31160;49.500;7.772;2023-02-01T09:04:58;6.90;99.90
13794;DHT22;31160;49.500;7.772;2023-02-01T09:07:28;6.90;99.90
13794;DHT22;31160;49.500;7.772;2023-02-01T09:09:54;6.90;99.90
13794;DHT22;31160;49.500;7.772;2023-02-01T09:12:23;6.80;99.90
13794;DHT22;31160;49.500;7.772;2023-02-01T09:14:49;6.80;99.90
13794;DHT22;31160;49.500;7.772;2023-02-01T09:17:16;6.70;99.90
13794;DHT22;31160;49.500;7.772;2023-02-01T09:19:43;6.70;99.90
13794;DHT22;31160;49.500;7.772;2023-02-01T09:22:09;6.60;99.90
13794;DHT22;31160;49.500;7.772;2023-02-01T09:24:36;6.70;99.90
13794;DHT22;31160;49.500;7.772;2023-02-01T09:27:03;6.80;99.90
13794;DHT22;31160;49.500;7.772;2023-02-01T09:29:30;6.90;99.90
13794;DHT22;31160;49.500;7.772;2023-02-01T09:31:57;6.70;99.90
13794;DHT22;31160;49.500;7.772;2023-02-01T09:34:30;6.70;99.90
13794;DHT22;31160;49.500;7.772;2023-02-01T09:36:57;6.60;99.90
13794;DHT22;31160;49.500;7.772;2023-02-01T09:39:24;6.70;99.90
13794;DHT22;31160;49.500;7.772;2023-02-01T09:45:06;6.70;99.90
13794;DHT22;31160;49.500;7.772;2023-02-01T09:47:39;6.60;99.90
13794;DHT22;31160;49.500;7.772;2023-02-01T09:50:22;6.70;99.90
13794;DHT22;31160;49.500;7.772;2023-02-01T09:53:06;6.70;99.90
13794;DHT22;31160;49.500;7.772;2023-02-01T09:55:43;6.50;99.90
13794;DHT22;31160;49.500;7.772;2023-02-01T09:58:38;6.70;99.90
13794;DHT22;31160;49.500;7.772;2023-02-01T10:01:16;6.80;99.90
13794;DHT22;31160;49.500;7.772;2023-02-01T10:03:45;6.80;99.90
13794;DHT22;31160;49.500;7.772;2023-02-01T10:14:56;6.60;99.90
13794;DHT22;31160;49.500;7.772;2023-02-01T10:20:03;6.60;99.90
13794;DHT22;31160;49.500;7.772;2023-02-01T10:22:46;6.30;99.90
13794;DHT22;31160;49.500;7.772;2023-02-01T10:25:54;6.20;99.90
13794;DHT22;31160;49.500;7.772;2023-02-01T10:28:21;6.40;99.90
13794;DHT22;31160;49.500;7.772;2023-02-01T10:30:53;6.40;99.90
13794;DHT22;31160;49.500;7.772;2023-02-01T10:33:33;6.60;99.90
13794;DHT22;31160;49.500;7.772;2023-02-01T10:36:16;6.50;99.90
13794;DHT22;31160;49.500;7.772;2023-02-01T10:38:44;6.70;99.90
13794;DHT22;31160;49.500;7.772;2023-02-01T10:41:16;6.80;99.90
13794;DHT22;31160;49.500;7.772;2023-02-01T10:43:47;6.80;99.90
13794;DHT22;31160;49.500;7.772;2023-02-01T10:46:14;6.80;99.90
13794;DHT22;31160;49.500;7.772;2023-02-01T10:48:42;6.60;99.90
13794;DHT22;31160;49.500;7.772;2023-02-01T10:51:16;6.60;99.90
13794;DHT22;31160;49.500;7.772;2023-02-01T10:53:52;6.50;99.90
13794;DHT22;31160;49.500;7.772;2023-02-01T10:56:25;6.80;99.90
13794;DHT22;31160;49.500;7.772;2023-02-01T10:59:06;6.90;99.90
13794;DHT22;31160;49.500;7.772;2023-02-01T11:01:43;6.80;99.90
13794;DHT22;31160;49.500;7.772;2023-02-01T11:04:19;6.80;99.90
13794;DHT22;31160;49.500;7.772;2023-02-01T11:07:12;6.90;99.90
13794;DHT22;31160;49.500;7.772;2023-02-01T11:09:40;7.10;99.90
13794;DHT22;31160;49.500;7.772;2023-02-01T11:12:33;7.00;99.90
13794;DHT22;31160;49.500;7.772;2023-02-01T11:15:21;7.10;99.90
13794;DHT22;31160;49.500;7.772;2023-02-01T11:17:50;7.00;99.90
13794;DHT22;31160;49.500;7.772;2023-02-01T11:20:39;7.00;99.90
13794;DHT22;31160;49.500;7.772;2023-02-01T11:23:16;7.00;99.90
13794;DHT22;31160;49.500;7.772;2023-02-01T11:25:57;6.70;99.90
13794;DHT22;31160;49.500;7.772;2023-02-01T11:28:30;6.80;99.90
13794;DHT22;31160;49.500;7.772;2023-02-01T11:31:05;6.70;99.90
13794;DHT22;31160;49.500;7.772;2023-02-01T11:33:36;6.60;99.90
13794;DHT22;31160;49.500;7.772;2023-02-01T11:36:08;6.70;99.90
13794;DHT22;31160;49.500;7.772;2023-02-01T11:38:36;6.80;99.90
13794;DHT22;31160;49.500;7.772;2023-02-01T11:41:55;6.90;99.90
13794;DHT22;31160;49.500;7.772;2023-02-01T11:44:35;6.70;99.90
13794;DHT22;31160;49.500;7.772;2023-02-01T11:47:22;6.70;99.90
13794;DHT22;31160;49.500;7.772;2023-02-01T11:50:00;6.50;99.90
13794;DHT22;31160;49.500;7.772;2023-02-01T12:06:48;6.60;99.90
13794;DHT22;31160;49.500;7.772;2023-02-01T12:15:42;6.50;99.90
13794;DHT22;31160;49.500;7.772;2023-02-01T12:23:54;6.70;99.90
13794;DHT22;31160;49.500;7.772;2023-02-01T12:29:08;6.60;99.90
13794;DHT22;31160;49.500;7.772;2023-02-01T12:37:51;6.60;99.90
13794;DHT22;31160;49.500;7.772;2023-02-01T12:43:18;6.60;99.90
13794;DHT22;31160;49.500;7.772;2023-02-01T12:45:56;6.70;99.90
13794;DHT22;31160;49.500;7.772;2023-02-01T12:48:37;6.70;99.90
13794;DHT22;31160;49.500;7.772;2023-02-01T12:51:09;6.70;99.90
13794;DHT22;31160;49.500;7.772;2023-02-01T12:53:51;6.60;99.90
13794;DHT22;31160;49.500;7.772;2023-02-01T12:56:41;6.40;99.90
13794;DHT22;31160;49.500;7.772;2023-02-01T13:02:16;6.80;99.90
13794;DHT22;31160;49.500;7.772;2023-02-01T13:05:11;6.90;99.90
13794;DHT22;31160;49.500;7.772;2023-02-01T13:10:45;6.90;99.90
13794;DHT22;31160;49.500;7.772;2023-02-01T13:13:52;6.80;99.90
13794;DHT22;31160;49.500;7.772;2023-02-01T13:18:59;6.90;99.90
13794;DHT22;31160;49.500;7.772;2023-02-01T13:21:31;6.90;99.90
13794;DHT22;31160;49.500;7.772;2023-02-01T13:23:59;6.80;99.90
13794;DHT22;31160;49.500;7.772;2023-02-01T13:26:26;6.90;99.90
13794;DHT22;31160;49.500;7.772;2023-02-01T13:29:00;7.00;99.90
13794;DHT22;31160;49.500;7.772;2023-02-01T13:31:56;7.10;99.90
13794;DHT22;31160;49.500;7.772;2023-02-01T13:34:47;7.10;99.90
13794;DHT22;31160;49.500;7.772;2023-02-01T13:40:16;6.90;99.90
13794;DHT22;31160;49.500;7.772;2023-02-01T13:42:53;6.90;99.90
13794;DHT22;31160;49.500;7.772;2023-02-01T13:45:24;7.00;99.90
13794;DHT22;31160;49.500;7.772;2023-02-01T13:47:55;6.90;99.90
13794;DHT22;31160;49.500;7.772;2023-02-01T13:57:49;6.60;99.90
13794;DHT22;31160;49.500;7.772;2023-02-01T14:00:31;6.60;99.90
13794;DHT22;31160;49.500;7.772;2023-02-01T14:24:13;7.10;99.90
13794;DHT22;31160;49.500;7.772;2023-02-01T14:39:49;6.80;99.90
13794;DHT22;31160;49.500;7.772;2023-02-01T14:44:49;6.80;99.90
13794;DHT22;31160;49.500;7.772;2023-02-01T14:47:28;6.70;99.90
13794;DHT22;31160;49.500;7.772;2023-02-01T14:52:35;6.80;99.90
13794;DHT22;31160;49.500;7.772;2023-02-01T14:55:09;6.90;99.90
13794;DHT22;31160;49.500;7.772;2023-02-01T14:57:39;6.80;99.90
13794;DHT22;31160;49.500;7.772;2023-02-01T15:00:17;6.70;99.90
13794;DHT22;31160;49.500;7.772;2023-02-01T15:02:46;6.90;99.90
13794;DHT22;31160;49.500;7.772;2023-02-01T15:07:51;6.70;99.90
13794;DHT22;31160;49.500;7.772;2023-02-01T15:10:20;6.70;99.90
13794;DHT22;31160;49.500;7.772;2023-02-01T15:12:47;6.60;99.90
13794;DHT22;31160;49.500;7.772;2023-02-01T15:17:57;6.60;99.90
13794;DHT22;31160;49.500;7.772;2023-02-01T15:20:27;6.60;99.90
13794;DHT22;31160;49.500;7.772;2023-02-01T15:22:55;6.60;99.90
13794;DHT22;31160;49.500;7.772;2023-02-01T15:25:34;6.70;99.90
13794;DHT22;31160;49.500;7.772;2023-02-01T15:28:08;6.80;99.90
13794;DHT22;31160;49.500;7.772;2023-02-01T15:30:36;6.70;99.90
13794;DHT22;31160;49.500;7.772;2023-02-01T15:33:17;6.80;99.90
13794;DHT22;31160;49.500;7.772;2023-02-01T15:35:48;6.80;99.90
13794;DHT22;31160;49.500;7.772;2023-02-01T15:43:27;6.60;99.90
13794;DHT22;31160;49.500;7.772;2023-02-01T15:46:03;6.80;99.90
13794;DHT22;31160;49.500;7.772;2023-02-01T15:48:45;6.90;99.90
13794;DHT22;31160;49.500;7.772;2023-02-01T15:51:14;6.80;99.90
13794;DHT22;31160;49.500;7.772;2023-02-01T15:53:44;6.80;99.90
13794;DHT22;31160;49.500;7.772;2023-02-01T15:56:12;6.70;99.90
13794;DHT22;31160;49.500;7.772;2023-02-01T15:58:43;6.70;99.90
13794;DHT22;31160;49.500;7.772;2023-02-01T16:01:12;6.60;99.90
13794;DHT22;31160;49.500;7.772;2023-02-01T16:03:44;6.60;99.90
13794;DHT22;31160;49.500;7.772;2023-02-01T16:06:31;6.60;99.90
13794;DHT22;31160;49.500;7.772;2023-02-01T16:09:03;6.70;99.90
13794;DHT22;31160;49.500;7.772;2023-02-01T16:11:32;6.60;99.90
13794;DHT22;31160;49.500;7.772;2023-02-01T16:14:00;6.40;99.90
13794;DHT22;31160;49.500;7.772;2023-02-01T16:16:28;6.50;99.90
13794;DHT22;31160;49.500;7.772;2023-02-01T16:18:55;6.40;99.90
13794;DHT22;31160;49.500;7.772;2023-02-01T16:21:22;6.50;99.90
13794;DHT22;31160;49.500;7.772;2023-02-01T16:23:50;6.40;99.90
13794;DHT22;31160;49.500;7.772;2023-02-01T16:26:18;6.50;99.90
13794;DHT22;31160;49.500;7.772;2023-02-01T16:28:46;6.50;99.90
13794;DHT22;31160;49.500;7.772;2023-02-01T16:31:15;6.50;99.90
13794;DHT22;31160;49.500;7.772;2023-02-01T16:33:50;6.50;99.90
13794;DHT22;31160;49.500;7.772;2023-02-01T16:36:17;6.40;99.90
13794;DHT22;31160;49.500;7.772;2023-02-01T16:38:45;6.50;99.90
13794;DHT22;31160;49.500;7.772;2023-02-01T16:41:16;6.50;99.90
13794;DHT22;31160;49.500;7.772;2023-02-01T16:43:43;6.50;99.90
13794;DHT22;31160;49.500;7.772;2023-02-01T16:46:14;6.60;99.90
13794;DHT22;31160;49.500;7.772;2023-02-01T16:48:46;6.60;99.90
13794;DHT22;31160;49.500;7.772;2023-02-01T16:51:15;6.40;99.90
13794;DHT22;31160;49.500;7.772;2023-02-01T16:53:44;6.40;99.90
13794;DHT22;31160;49.500;7.772;2023-02-01T16:56:23;6.40;99.90
13794;DHT22;31160;49.500;7.772;2023-02-01T16:58:50;6.40;99.90
13794;DHT22;31160;49.500;7.772;2023-02-01T17:01:18;6.20;99.90
13794;DHT22;31160;49.500;7.772;2023-02-01T17:03:46;6.40;99.90
13794;DHT22;31160;49.500;7.772;2023-02-01T17:06:15;6.40;99.90
13794;DHT22;31160;49.500;7.772;2023-02-01T17:08:45;6.40;99.90
13794;DHT22;31160;49.500;7.772;2023-02-01T17:11:13;6.40;99.90
13794;DHT22;31160;49.500;7.772;2023-02-01T17:13:40;6.40;99.90
13794;DHT22;31160;49.500;7.772;2023-02-01T17:16:27;6.40;99.90
13794;DHT22;31160;49.500;7.772;2023-02-01T17:19:13;6.40;99.90
13794;DHT22;31160;49.500;7.772;2023-02-01T17:21:46;6.30;99.90
13794;DHT22;31160;49.500;7.772;2023-02-01T17:24:14;6.30;99.90
13794;DHT22;31160;49.500;7.772;2023-02-01T17:26:42;6.40;99.90
13794;DHT22;31160;49.500;7.772;2023-02-01T17:29:10;6.40;99.90
13794;DHT22;31160;49.500;7.772;2023-02-01T17:31:40;6.30;99.90
13794;DHT22;31160;49.500;7.772;2023-02-01T17:34:09;6.30;99.90
13794;DHT22;31160;49.500;7.772;2023-02-01T17:36:37;6.30;99.90
13794;DHT22;31160;49.500;7.772;2023-02-01T17:39:05;6.40;99.90
13794;DHT22;31160;49.500;7.772;2023-02-01T17:41:32;6.40;99.90
13794;DHT22;31160;49.500;7.772;2023-02-01T17:43:59;6.30;99.90
13794;DHT22;31160;49.500;7.772;2023-02-01T17:46:26;6.30;99.90
13794;DHT22;31160;49.500;7.772;2023-02-01T17:48:54;6.40;99.90
13794;DHT22;31160;49.500;7.772;2023-02-01T17:51:24;6.40;99.90
13794;DHT22;31160;49.500;7.772;2023-02-01T17:53:52;6.40;99.90
13794;DHT22;31160;49.500;7.772;2023-02-01T17:56:22;6.40;99.90
13794;DHT22;31160;49.500;7.772;2023-02-01T17:58:49;6.20;99.90
13794;DHT22;31160;49.500;7.772;2023-02-01T18:01:21;6.30;99.90
13794;DHT22;31160;49.500;7.772;2023-02-01T18:03:48;6.10;99.90
13794;DHT22;31160;49.500;7.772;2023-02-01T18:06:20;6.10;99.90
13794;DHT22;31160;49.500;7.772;2023-02-01T18:08:47;6.10;99.90
13794;DHT22;31160;49.500;7.772;2023-02-01T18:11:19;5.90;99.90
13794;DHT22;31160;49.500;7.772;2023-02-01T18:13:47;5.90;99.90
13794;DHT22;31160;49.500;7.772;2023-02-01T18:16:21;6.00;99.90
13794;DHT22;31160;49.500;7.772;2023-02-01T18:18:48;6.10;99.90
13794;DHT22;31160;49.500;7.772;2023-02-01T18:21:16;6.00;99.90
13794;DHT22;31160;49.500;7.772;2023-02-01T18:23:44;6.10;99.90
13794;DHT22;31160;49.500;7.772;2023-02-01T18:26:12;6.10;99.90
13794;DHT22;31160;49.500;7.772;2023-02-01T18:28:39;6.10;99.90
13794;DHT22;31160;49.500;7.772;2023-02-01T18:31:27;6.10;99.90
13794;DHT22;31160;49.500;7.772;2023-02-01T18:33:56;6.10;99.90
13794;DHT22;31160;49.500;7.772;2023-02-01T18:36:24;6.10;99.90
13794;DHT22;31160;49.500;7.772;2023-02-01T18:38:51;6.00;99.90
13794;DHT22;31160;49.500;7.772;2023-02-01T18:41:21;6.00;99.90
13794;DHT22;31160;49.500;7.772;2023-02-01T18:43:50;6.10;99.90
13794;DHT22;31160;49.500;7.772;2023-02-01T18:46:17;6.30;99.90